Airfield :
LOGIN :

Register | Disclaimer

   EN    FR    IT 

 










Legend :    VFR   Marginal VFR   IFR   Intensive IFR   Very Intensive IFR
Visi :
Ceiling :
>= 8 km
>= 3000ft
5 to 8 km
1000 to 3000 ft
1500m to 5 km
500 to 1000 ft
800 to 1500m
200 to 500 ft
< 800m
< 200 ft
Symbols :   Thunderstorms  Fog  Heavy snow  Heavy precipitations  Wind > 20 kt
SIGMETs :     Misc.  Thunderstorms  Icing  Turbulence  Mountain Waves  Volcanic Ashes






- Airport Elevation : 412 ft
- IATA code : ORE


LFOJ - Orleans

CURRENT METAR :
  • 170100Z AUTO 22015KT 160V230 9999 -RA FEW010/// SCT037/// OVC072/// ///CB 08/08 Q1016

EXPIRED METARs :
  • 170030Z AUTO 22015KT 9999 -RA FEW008/// BKN074/// OVC100/// ///CB 08/07 Q1016
  • 170000Z AUTO 22013KT 9999 RA FEW025/// SCT031/// OVC070/// ///CB 08/08 Q1016
  • 162330Z AUTO 24015KT 8000 RA FEW011/// SCT016/// BKN022/// ///CB 08/08 Q1016
  • 162300Z AUTO 24013KT 9999 -RA FEW012/// SCT033/// OVC070/// ///CB 09/08 Q1015
  • 162230Z AUTO 24013KT 9999 -RA FEW011/// SCT022/// BKN032/// ///TCU 09/08 Q1015
  • 162200Z AUTO 25015KT 9999 -RA FEW013/// SCT020/// BKN032/// ///TCU 09/08 Q1014

TAF AMD TAF LFOJ
Valid from the 16 at 17:00 until the 17 at 15:00 UTC


161700Z 1617/1715 22030G40KT 9999 OVC030
TEMPO 1617/1619 22035G45KT
TEMPO 1619/1624 4000 RA BKN013 SCT030TCU
BECMG 1701/1703 24015G25KT
TEMPO 1705/1709 4000 RA BKN010 SCT025TCU
TEMPO 1711/1715 24025G40KT 3000 SHRA SCT013TCU BKN028CB



MET'MAP, your aeronautical weather chart ! - Copyright ORBIFLY December 2007 - Disclaimer

ORBIFLY MET'MAP TEAM :

Programming & Development : Alexandra Zaïnal
Concept & original design : Baudouin d'Aumeries
Assistance for programming : Marc-Olivier Méhu
Technical & hardware support : Manuel Goepfert

Contact : metmap@orbifly.com




SOURCES & CREDITS :

   NOAA